createdAt,value
2023-02-06T00:01:48.773Z,104193.06
2023-02-06T00:04:17.595Z,104196.35
2023-02-06T00:06:46.092Z,104188.92
2023-02-06T00:09:14.077Z,104187.33
2023-02-06T00:11:42.180Z,104197.11
2023-02-06T00:14:10.613Z,104203.84
2023-02-06T00:16:39.118Z,104199.02
2023-02-06T00:19:07.234Z,104189.90
2023-02-06T00:21:35.266Z,104187.48
2023-02-06T00:24:04.347Z,104188.98
2023-02-06T00:26:32.498Z,104189.01
2023-02-06T00:29:00.545Z,104184.20
2023-02-06T00:31:28.875Z,104173.38
2023-02-06T00:33:56.981Z,104172.77
2023-02-06T00:36:25.529Z,104170.04
2023-02-06T00:38:53.534Z,104166.09
2023-02-06T00:41:22.077Z,104158.75
2023-02-06T00:43:50.253Z,104144.48
2023-02-06T00:46:18.359Z,104138.00
2023-02-06T00:48:46.517Z,104136.30
2023-02-06T00:51:14.743Z,104133.91
2023-02-06T00:53:44.000Z,104137.52
2023-02-06T00:56:11.943Z,104141.45
2023-02-06T00:58:40.430Z,104139.77
2023-02-06T01:01:09.721Z,104125.73
2023-02-06T01:03:38.150Z,104115.11
2023-02-06T01:06:18.352Z,104113.86
2023-02-06T01:08:47.242Z,104115.27
2023-02-06T01:11:20.438Z,104112.56
2023-02-06T01:13:54.521Z,104116.98
2023-02-06T01:16:24.774Z,104120.01
2023-02-06T01:18:53.143Z,104115.73
2023-02-06T01:21:27.391Z,104111.81
2023-02-06T01:23:55.843Z,104114.11
2023-02-06T01:26:27.152Z,104111.08
2023-02-06T01:29:15.024Z,104110.78
2023-02-06T01:31:43.761Z,104113.94
2023-02-06T01:34:12.605Z,104106.63
2023-02-06T01:36:44.034Z,104103.16
2023-02-06T01:39:12.343Z,104104.75
2023-02-06T01:41:40.534Z,104105.96
2023-02-06T01:44:39.629Z,104101.47
2023-02-06T01:47:11.083Z,104103.38
2023-02-06T01:49:46.430Z,104100.05
2023-02-06T01:52:25.723Z,104091.53
2023-02-06T01:55:01.919Z,104088.91
2023-02-06T01:57:52.811Z,104098.25
2023-02-06T02:00:21.475Z,104099.95
2023-02-06T02:02:50.489Z,104096.30
2023-02-06T02:05:22.751Z,104091.96
2023-02-06T02:08:01.181Z,104095.41
2023-02-06T02:10:53.101Z,104095.40
2023-02-06T02:13:28.854Z,104094.16
2023-02-06T02:16:07.790Z,104093.41
2023-02-06T02:18:54.774Z,104086.45
2023-02-06T02:22:10.921Z,104084.99
2023-02-06T02:24:58.001Z,104091.98
2023-02-06T02:28:09.427Z,104091.55
2023-02-06T02:31:12.965Z,104084.69
2023-02-06T02:34:10.100Z,104082.20
2023-02-06T02:37:01.595Z,104081.12
2023-02-06T02:39:45.830Z,104078.47
2023-02-06T02:42:39.994Z,104077.05
2023-02-06T02:45:21.072Z,104071.33
2023-02-06T02:48:08.030Z,104069.52
2023-02-06T02:50:41.280Z,104068.50
2023-02-06T02:53:14.937Z,104070.98
2023-02-06T02:56:43.617Z,104070.36
2023-02-06T02:59:23.952Z,104061.85
2023-02-06T03:02:24.877Z,104060.83
2023-02-06T03:05:28.497Z,104058.44
2023-02-06T03:08:12.329Z,104061.83
2023-02-06T03:11:16.154Z,104059.91
2023-02-06T03:14:34.446Z,104052.33
2023-02-06T03:17:38.978Z,104052.71
2023-02-06T03:20:10.772Z,104048.79
2023-02-06T03:22:42.903Z,104044.87
2023-02-06T03:25:15.823Z,104037.70
2023-02-06T03:27:46.991Z,104034.68
2023-02-06T03:30:19.848Z,104036.67
2023-02-06T03:32:55.980Z,104026.55
2023-02-06T03:35:35.486Z,104025.52
2023-02-06T03:38:21.173Z,104020.72
2023-02-06T03:40:50.209Z,104013.17
2023-02-06T03:43:38.894Z,104000.59
2023-02-06T03:46:32.359Z,104008.42
2023-02-06T03:49:45.936Z,104019.17
2023-02-06T03:52:19.784Z,104009.77
2023-02-06T03:55:24.107Z,104015.04
2023-02-06T03:57:59.674Z,104026.16
2023-02-06T04:00:51.135Z,104024.30
2023-02-06T04:03:28.355Z,104029.33
2023-02-06T04:06:24.677Z,104042.85
2023-02-06T04:08:55.352Z,104040.98
2023-02-06T04:11:43.798Z,104036.80
2023-02-06T04:14:11.833Z,104050.97
2023-02-06T04:16:45.101Z,104053.60
2023-02-06T04:19:42.258Z,104052.59
2023-02-06T04:23:11.049Z,104048.15
2023-02-06T04:25:41.492Z,104040.92
2023-02-06T04:28:13.214Z,104043.54
2023-02-06T04:30:57.060Z,104042.49
2023-02-06T04:33:25.453Z,104044.27
2023-02-06T04:35:53.582Z,104048.98
2023-02-06T04:39:12.320Z,104051.58
2023-02-06T04:42:20.932Z,104043.13
2023-02-06T04:44:52.221Z,104040.90
2023-02-06T04:47:20.598Z,104039.86
2023-02-06T04:49:58.833Z,104039.34
2023-02-06T04:52:49.589Z,104041.41
2023-02-06T04:55:22.549Z,104048.99
2023-02-06T04:58:13.892Z,104046.40
2023-02-06T05:00:46.765Z,104036.55
2023-02-06T05:03:25.405Z,104030.31
2023-02-06T05:06:28.285Z,104025.46
2023-02-06T05:09:11.118Z,104025.29
2023-02-06T05:11:44.631Z,104033.05
2023-02-06T05:14:13.149Z,104025.97
2023-02-06T05:16:50.559Z,104022.55
2023-02-06T05:19:18.456Z,104028.09
2023-02-06T05:21:46.785Z,104026.57
2023-02-06T05:24:38.753Z,104022.05
2023-02-06T05:27:07.000Z,104014.77
2023-02-06T05:29:45.745Z,104017.52
2023-02-06T05:32:19.354Z,104010.42
2023-02-06T05:34:50.782Z,104006.25
2023-02-06T05:37:22.270Z,103992.77
2023-02-06T05:39:53.602Z,103980.27
2023-02-06T05:43:02.215Z,103986.23
2023-02-06T05:45:53.602Z,103984.08
2023-02-06T05:48:42.539Z,103977.80
2023-02-06T05:51:19.153Z,103965.66
2023-02-06T05:53:47.834Z,103964.90
2023-02-06T05:56:56.658Z,103961.19
2023-02-06T05:59:45.316Z,103955.92
2023-02-06T06:02:21.006Z,103957.76
2023-02-06T06:04:49.205Z,103963.06
2023-02-06T06:07:17.755Z,103967.86
2023-02-06T06:09:46.102Z,103969.90
2023-02-06T06:12:17.496Z,103970.05
2023-02-06T06:14:55.908Z,103961.41
2023-02-06T06:18:14.706Z,103956.71
2023-02-06T06:21:03.086Z,103949.75
2023-02-06T06:23:34.676Z,103948.34
2023-02-06T06:26:11.477Z,103947.79
2023-02-06T06:28:40.321Z,103942.60
2023-02-06T06:31:17.289Z,103943.09
2023-02-06T06:33:48.573Z,103946.31
2023-02-06T06:36:20.124Z,103952.30
2023-02-06T06:39:05.972Z,103950.17
2023-02-06T06:42:04.385Z,103941.80
2023-02-06T06:44:55.664Z,103936.88
2023-02-06T06:47:23.733Z,103929.19
2023-02-06T06:50:43.403Z,103930.51
2023-02-06T06:53:44.468Z,103936.13
2023-02-06T06:56:33.025Z,103933.35
2023-02-06T06:59:10.107Z,103935.56
2023-02-06T07:01:38.368Z,103932.11
2023-02-06T07:04:46.819Z,103925.53
2023-02-06T07:08:05.433Z,103927.52
2023-02-06T07:11:02.521Z,103928.45
2023-02-06T07:13:35.561Z,103923.31
2023-02-06T07:17:03.330Z,103922.77
2023-02-06T07:19:52.653Z,103933.05
2023-02-06T07:23:21.629Z,103937.53
2023-02-06T07:26:02.322Z,103939.93
2023-02-06T07:28:33.433Z,103937.52
2023-02-06T07:31:22.030Z,103929.03
2023-02-06T07:34:50.847Z,103931.61
2023-02-06T07:37:57.317Z,103938.86
2023-02-06T07:41:26.225Z,103944.27
2023-02-06T07:44:33.454Z,103937.59
2023-02-06T07:47:29.351Z,103932.14
2023-02-06T07:49:58.050Z,103933.00
2023-02-06T07:52:26.241Z,103927.98
2023-02-06T07:54:57.172Z,103920.92
2023-02-06T07:57:25.426Z,103918.04
2023-02-06T07:59:56.289Z,103920.66
2023-02-06T08:02:25.055Z,103923.50
2023-02-06T08:04:56.515Z,103926.66
2023-02-06T08:07:24.615Z,103923.60
2023-02-06T08:09:55.450Z,103921.05
2023-02-06T08:12:23.925Z,103924.20
2023-02-06T08:14:52.391Z,103926.17
2023-02-06T08:17:26.227Z,103921.56
2023-02-06T08:19:54.611Z,103923.64
2023-02-06T08:22:25.305Z,103924.20
2023-02-06T08:24:55.391Z,103925.25
2023-02-06T08:27:23.641Z,103926.16
2023-02-06T08:29:55.191Z,103923.93
2023-02-06T08:32:23.236Z,103927.06
2023-02-06T08:35:12.263Z,103933.32
2023-02-06T08:37:40.983Z,103935.46
2023-02-06T08:40:35.873Z,103939.67
2023-02-06T08:43:04.255Z,103941.79
2023-02-06T08:45:38.425Z,103947.88
2023-02-06T08:48:06.827Z,103952.48
2023-02-06T08:51:02.156Z,103948.63
2023-02-06T08:53:34.148Z,103947.55
2023-02-06T08:56:11.223Z,103951.29
2023-02-06T08:59:14.708Z,103955.03
2023-02-06T09:01:50.000Z,103954.47
2023-02-06T09:04:19.317Z,103953.83
2023-02-06T09:06:49.244Z,103946.82
2023-02-06T09:09:39.014Z,103943.45
2023-02-06T09:12:30.124Z,103944.89
2023-02-06T09:14:59.996Z,103948.61
2023-02-06T09:17:31.573Z,103948.66
2023-02-06T09:20:05.749Z,103941.34
2023-02-06T09:22:35.993Z,103941.55
2023-02-06T09:25:07.710Z,103941.43
2023-02-06T09:27:49.693Z,103948.05
2023-02-06T09:30:38.497Z,103943.79
2023-02-06T09:33:09.781Z,103945.58
2023-02-06T09:35:38.511Z,103947.21
2023-02-06T09:38:09.618Z,103945.55
2023-02-06T09:40:38.144Z,103946.15
2023-02-06T09:43:06.890Z,103945.53
2023-02-06T09:45:43.606Z,103946.29
2023-02-06T09:48:21.364Z,103944.13
2023-02-06T09:51:12.582Z,103943.33
2023-02-06T09:53:54.764Z,103940.63
2023-02-06T09:57:35.897Z,103947.11
2023-02-06T10:00:29.972Z,103954.13
2023-02-06T10:03:57.780Z,103947.80
2023-02-06T10:06:37.388Z,103944.89
2023-02-06T10:09:18.836Z,103950.51
2023-02-06T10:12:01.798Z,103949.86
2023-02-06T10:14:53.481Z,103947.11
2023-02-06T10:17:45.138Z,103944.57
2023-02-06T10:20:59.949Z,103941.16
2023-02-06T10:23:56.052Z,103934.42
2023-02-06T10:26:39.143Z,103930.98
2023-02-06T10:29:18.677Z,103934.64
2023-02-06T10:32:31.314Z,103934.48
2023-02-06T10:35:14.616Z,103936.91
2023-02-06T10:38:12.255Z,103929.12
2023-02-06T10:41:21.221Z,103932.93
2023-02-06T10:44:51.559Z,103927.73
2023-02-06T10:47:44.855Z,103931.37
2023-02-06T10:50:38.090Z,103929.11
2023-02-06T10:53:22.989Z,103919.38
2023-02-06T10:56:26.701Z,103923.72
2023-02-06T10:59:00.179Z,103922.31
2023-02-06T11:01:34.787Z,103920.38
2023-02-06T11:04:05.919Z,103918.95
2023-02-06T11:06:55.417Z,103919.45
2023-02-06T11:09:26.539Z,103917.16
2023-02-06T11:12:06.092Z,103915.55
2023-02-06T11:14:38.973Z,103908.05
2023-02-06T11:17:07.308Z,103896.89
2023-02-06T11:20:01.737Z,103896.67
2023-02-06T11:22:36.744Z,103895.77
2023-02-06T11:25:45.513Z,103895.02
2023-02-06T11:28:18.464Z,103891.45
2023-02-06T11:31:00.974Z,103884.26
2023-02-06T11:34:01.528Z,103879.15
2023-02-06T11:36:33.496Z,103878.20
2023-02-06T11:39:33.197Z,103878.66
2023-02-06T11:42:23.254Z,103874.05
2023-02-06T11:44:56.334Z,103866.15
2023-02-06T11:47:32.510Z,103860.50
2023-02-06T11:50:41.590Z,103858.50
2023-02-06T11:53:15.519Z,103851.80
2023-02-06T11:55:49.183Z,103848.38
2023-02-06T11:58:33.261Z,103842.73
2023-02-06T12:01:10.735Z,103833.91
2023-02-06T12:03:54.036Z,103831.91
2023-02-06T12:06:25.389Z,103825.71
2023-02-06T12:09:07.609Z,103816.27
2023-02-06T12:11:45.742Z,103815.69
2023-02-06T12:14:25.353Z,103807.24
2023-02-06T12:17:07.612Z,103805.02
2023-02-06T12:20:10.666Z,103798.09
2023-02-06T12:23:24.583Z,103785.61
2023-02-06T12:25:57.610Z,103780.75
2023-02-06T12:29:12.205Z,103780.81
2023-02-06T12:32:07.607Z,103777.54
2023-02-06T12:35:16.364Z,103771.70
2023-02-06T12:37:55.585Z,103768.94
2023-02-06T12:40:35.992Z,103763.60
2023-02-06T12:43:19.053Z,103757.09
2023-02-06T12:45:58.231Z,103751.39
2023-02-06T12:48:35.836Z,103745.34
2023-02-06T12:51:27.623Z,103747.55
2023-02-06T12:54:26.579Z,103741.36
2023-02-06T12:57:23.453Z,103738.80
2023-02-06T13:00:40.458Z,103739.56
2023-02-06T13:03:22.979Z,103739.76
2023-02-06T13:06:03.241Z,103741.96
2023-02-06T13:08:56.730Z,103737.86
2023-02-06T13:11:35.743Z,103737.10
2023-02-06T13:14:29.056Z,103724.59
2023-02-06T13:17:08.061Z,103724.30
2023-02-06T13:19:44.929Z,103715.88
2023-02-06T13:22:17.567Z,103712.52
2023-02-06T13:24:52.597Z,103710.20
2023-02-06T13:27:40.191Z,103710.48
2023-02-06T13:30:57.905Z,103704.10
2023-02-06T13:34:18.527Z,103702.25
2023-02-06T13:37:15.677Z,103694.98
2023-02-06T13:39:49.072Z,103685.31
2023-02-06T13:42:59.672Z,103681.13
2023-02-06T13:46:01.177Z,103679.38
2023-02-06T13:49:07.254Z,103677.59
2023-02-06T13:51:54.246Z,103679.23
2023-02-06T13:54:25.424Z,103673.96
2023-02-06T13:57:49.092Z,103671.60
2023-02-06T14:00:43.068Z,103663.85
2023-02-06T14:03:35.187Z,103662.69
2023-02-06T14:06:41.685Z,103662.98
2023-02-06T14:10:18.958Z,103657.10
2023-02-06T14:13:19.642Z,103651.18
2023-02-06T14:16:04.765Z,103651.59
2023-02-06T14:18:40.737Z,103648.70
2023-02-06T14:21:13.370Z,103650.39
2023-02-06T14:24:30.167Z,103645.65
2023-02-06T14:27:06.708Z,103643.65
2023-02-06T14:29:40.795Z,103640.40
2023-02-06T14:32:18.580Z,103638.66
2023-02-06T14:35:06.191Z,103641.23
2023-02-06T14:38:14.477Z,103645.21
2023-02-06T14:41:04.472Z,103641.52
2023-02-06T14:43:44.515Z,103639.79
2023-02-06T14:46:18.142Z,103639.44
2023-02-06T14:48:52.129Z,103641.51
2023-02-06T14:51:30.722Z,103638.20
2023-02-06T14:54:03.621Z,103634.19
2023-02-06T14:56:33.405Z,103632.45
2023-02-06T14:59:14.175Z,103631.40
2023-02-06T15:01:45.652Z,103634.70
2023-02-06T15:04:38.447Z,103635.58
2023-02-06T15:07:06.970Z,103632.41
2023-02-06T15:09:39.151Z,103630.67
2023-02-06T15:12:36.729Z,103626.52
2023-02-06T15:15:28.611Z,103623.56
2023-02-06T15:18:08.898Z,103618.70
2023-02-06T15:20:42.346Z,103614.52
2023-02-06T15:23:48.632Z,103615.42
2023-02-06T15:26:57.366Z,103612.64
2023-02-06T15:29:27.018Z,103608.16
2023-02-06T15:32:01.781Z,103611.73
2023-02-06T15:34:30.273Z,103603.96
2023-02-06T15:37:49.938Z,103599.51
2023-02-06T15:40:20.952Z,103592.73
2023-02-06T15:43:00.370Z,103593.55
2023-02-06T15:45:40.160Z,103593.66
2023-02-06T15:48:48.965Z,103592.38
2023-02-06T15:51:26.039Z,103588.98
2023-02-06T15:54:34.146Z,103583.16
2023-02-06T15:57:57.655Z,103582.54
2023-02-06T16:00:53.514Z,103579.61
2023-02-06T16:03:25.755Z,103574.47
2023-02-06T16:05:56.542Z,103571.78
2023-02-06T16:08:32.170Z,103565.48
2023-02-06T16:11:37.574Z,103559.41
2023-02-06T16:14:06.850Z,103555.02
2023-02-06T16:16:35.303Z,103561.79
2023-02-06T16:19:28.024Z,103560.04
2023-02-06T16:22:58.535Z,103560.27
2023-02-06T16:25:36.776Z,103563.17
2023-02-06T16:28:22.897Z,103560.77
2023-02-06T16:31:04.796Z,103561.86
2023-02-06T16:34:03.220Z,103560.35
2023-02-06T16:36:33.648Z,103559.89
2023-02-06T16:39:04.426Z,103563.27
2023-02-06T16:41:43.242Z,103562.92
2023-02-06T16:44:19.148Z,103570.15
2023-02-06T16:46:50.660Z,103571.58
2023-02-06T16:49:22.964Z,103573.58
2023-02-06T16:51:53.688Z,103574.66
2023-02-06T16:55:25.736Z,103573.16
2023-02-06T16:58:37.095Z,103570.86
2023-02-06T17:01:25.912Z,103573.20
2023-02-06T17:04:13.561Z,103579.69
2023-02-06T17:07:05.326Z,103577.78
2023-02-06T17:09:36.753Z,103579.39
2023-02-06T17:12:15.899Z,103581.64
2023-02-06T17:14:44.463Z,103577.46
2023-02-06T17:17:15.049Z,103578.13
2023-02-06T17:19:43.880Z,103578.64
2023-02-06T17:22:13.249Z,103580.19
2023-02-06T17:24:59.045Z,103587.30
2023-02-06T17:27:27.565Z,103586.19
2023-02-06T17:30:57.188Z,103583.33
2023-02-06T17:33:26.770Z,103591.61
2023-02-06T17:36:08.070Z,103584.55
2023-02-06T17:38:39.209Z,103581.84
2023-02-06T17:41:10.711Z,103581.91
2023-02-06T17:43:38.888Z,103580.95
2023-02-06T17:46:07.496Z,103575.98
2023-02-06T17:48:36.626Z,103574.84
2023-02-06T17:51:05.859Z,103573.20
2023-02-06T17:53:34.258Z,103575.17
2023-02-06T17:56:17.970Z,103570.73
2023-02-06T17:58:46.059Z,103571.31
2023-02-06T18:01:35.199Z,103571.70
2023-02-06T18:04:09.278Z,103567.25
2023-02-06T18:06:37.685Z,103566.77
2023-02-06T18:09:06.541Z,103565.05
2023-02-06T18:11:35.948Z,103561.96
2023-02-06T18:14:04.953Z,103559.20
2023-02-06T18:16:33.991Z,103559.08
2023-02-06T18:19:06.131Z,103557.04
2023-02-06T18:21:34.240Z,103552.20
2023-02-06T18:24:02.503Z,103549.11
2023-02-06T18:26:30.625Z,103546.21
2023-02-06T18:28:58.734Z,103546.09
2023-02-06T18:31:30.091Z,103544.05
2023-02-06T18:33:58.788Z,103545.29
2023-02-06T18:36:27.257Z,103547.73
2023-02-06T18:38:58.631Z,103550.52
2023-02-06T18:41:56.289Z,103547.24
2023-02-06T18:44:27.402Z,103547.61
2023-02-06T18:46:55.813Z,103547.63
2023-02-06T18:49:26.663Z,103544.17
2023-02-06T18:52:17.800Z,103546.95
2023-02-06T18:54:49.157Z,103546.45
2023-02-06T18:57:40.607Z,103539.88
2023-02-06T19:00:33.632Z,103541.82
2023-02-06T19:03:47.521Z,103539.92
2023-02-06T19:06:19.796Z,103533.02
2023-02-06T19:08:53.589Z,103534.60
2023-02-06T19:11:21.928Z,103536.17
2023-02-06T19:13:57.846Z,103540.88
2023-02-06T19:17:26.522Z,103537.94
2023-02-06T19:20:35.616Z,103531.36
2023-02-06T19:23:17.687Z,103526.52
2023-02-06T19:26:09.785Z,103524.44
2023-02-06T19:28:51.322Z,103522.19
2023-02-06T19:31:59.728Z,103518.91
2023-02-06T19:34:30.644Z,103518.04
2023-02-06T19:37:26.440Z,103524.45
2023-02-06T19:40:15.159Z,103532.77
2023-02-06T19:42:43.319Z,103536.75
2023-02-06T19:45:11.327Z,103544.71
2023-02-06T19:47:42.432Z,103550.25
2023-02-06T19:50:14.444Z,103547.66
2023-02-06T19:52:44.250Z,103546.44
2023-02-06T19:55:12.786Z,103544.36
2023-02-06T19:57:44.356Z,103542.29
2023-02-06T20:00:12.835Z,103543.84
2023-02-06T20:03:08.229Z,103545.73
2023-02-06T20:05:36.297Z,103547.11
2023-02-06T20:08:16.421Z,103542.27
2023-02-06T20:10:50.277Z,103542.10
2023-02-06T20:13:24.380Z,103551.11
2023-02-06T20:16:25.523Z,103551.45
2023-02-06T20:18:55.263Z,103554.73
2023-02-06T20:22:06.547Z,103553.70
2023-02-06T20:25:05.430Z,103548.66
2023-02-06T20:27:37.309Z,103550.20
2023-02-06T20:30:06.254Z,103550.02
2023-02-06T20:32:38.829Z,103549.00
2023-02-06T20:35:09.862Z,103552.81
2023-02-06T20:37:38.022Z,103566.66
2023-02-06T20:40:26.611Z,103569.11
2023-02-06T20:42:54.889Z,103569.98
2023-02-06T20:45:26.204Z,103564.98
2023-02-06T20:48:44.183Z,103568.27
2023-02-06T20:51:36.611Z,103574.51
2023-02-06T20:54:06.715Z,103573.64
2023-02-06T20:56:34.921Z,103565.84
2023-02-06T20:59:03.257Z,103556.48
2023-02-06T21:01:34.725Z,103550.27
2023-02-06T21:04:06.209Z,103550.60
2023-02-06T21:06:36.571Z,103553.38
2023-02-06T21:09:29.238Z,103557.02
2023-02-06T21:12:57.916Z,103564.45
2023-02-06T21:15:40.641Z,103561.34
2023-02-06T21:18:18.669Z,103559.78
2023-02-06T21:21:00.824Z,103562.38
2023-02-06T21:23:32.470Z,103562.90
2023-02-06T21:26:01.114Z,103564.63
2023-02-06T21:28:39.248Z,103555.63
2023-02-06T21:31:14.593Z,103549.05
2023-02-06T21:33:47.212Z,103545.92
2023-02-06T21:36:21.226Z,103551.48
2023-02-06T21:38:59.933Z,103548.86
2023-02-06T21:41:48.623Z,103554.25
2023-02-06T21:44:38.028Z,103556.31
2023-02-06T21:47:10.098Z,103555.29
2023-02-06T21:49:47.438Z,103551.65
2023-02-06T21:52:35.932Z,103547.48
2023-02-06T21:55:07.568Z,103547.49
2023-02-06T21:57:51.419Z,103548.88
2023-02-06T22:00:19.934Z,103550.61
2023-02-06T22:02:48.073Z,103548.00
2023-02-06T22:05:32.789Z,103546.10
2023-02-06T22:08:51.516Z,103544.55
2023-02-06T22:12:07.314Z,103542.80
2023-02-06T22:15:16.189Z,103538.30
2023-02-06T22:18:10.320Z,103537.61
2023-02-06T22:21:10.170Z,103533.62
2023-02-06T22:23:45.564Z,103530.34
2023-02-06T22:26:39.015Z,103530.16
2023-02-06T22:29:10.325Z,103532.57
2023-02-06T22:32:18.190Z,103529.63
2023-02-06T22:35:26.847Z,103534.81
2023-02-06T22:38:07.570Z,103541.71
2023-02-06T22:40:41.525Z,103544.65
2023-02-06T22:43:13.244Z,103549.31
2023-02-06T22:46:10.416Z,103548.27
2023-02-06T22:49:31.277Z,103547.93
2023-02-06T22:52:40.951Z,103544.61
2023-02-06T22:55:09.609Z,103546.85
2023-02-06T22:57:38.038Z,103549.08
2023-02-06T23:00:28.760Z,103543.19
2023-02-06T23:03:06.782Z,103543.70
2023-02-06T23:06:00.850Z,103546.08
2023-02-06T23:08:37.095Z,103550.20
2023-02-06T23:11:13.930Z,103547.40
2023-02-06T23:13:42.524Z,103546.67
2023-02-06T23:16:21.596Z,103548.94
2023-02-06T23:19:25.804Z,103556.57
2023-02-06T23:21:59.295Z,103558.48
2023-02-06T23:24:27.994Z,103555.06
2023-02-06T23:26:59.485Z,103549.18
2023-02-06T23:29:28.003Z,103544.53
2023-02-06T23:31:56.433Z,103544.52
2023-02-06T23:34:24.806Z,103547.95
2023-02-06T23:36:56.906Z,103548.63
2023-02-06T23:39:47.685Z,103543.42
2023-02-06T23:42:15.865Z,103538.71
2023-02-06T23:45:05.971Z,103539.55
2023-02-06T23:47:38.121Z,103547.33
2023-02-06T23:50:09.903Z,103544.18
2023-02-06T23:53:00.123Z,103537.08
2023-02-06T23:55:30.450Z,103534.98
2023-02-06T23:57:58.788Z,103534.81
